createdAt,value
2018-03-25T00:02:19.518Z,5.10
2018-03-25T00:04:58.565Z,5.10
2018-03-25T00:07:36.335Z,5.20
2018-03-25T00:10:12.957Z,5.20
2018-03-25T00:12:51.883Z,5.20
2018-03-25T00:15:34.704Z,5.20
2018-03-25T00:18:11.618Z,5.20
2018-03-25T00:20:48.813Z,5.20
2018-03-25T00:23:24.591Z,5.20
2018-03-25T00:26:02.241Z,5.20
2018-03-25T00:28:39.557Z,5.20
2018-03-25T00:31:16.508Z,5.20
2018-03-25T00:33:54.015Z,5.20
2018-03-25T00:36:31.211Z,5.20
2018-03-25T00:39:08.301Z,5.30
2018-03-25T00:41:46.097Z,5.30
2018-03-25T00:44:22.560Z,5.30
2018-03-25T00:47:01.393Z,5.40
2018-03-25T00:49:38.934Z,5.40
2018-03-25T00:52:14.797Z,5.40
2018-03-25T00:54:54.294Z,5.50
2018-03-25T00:57:31.837Z,5.50
2018-03-25T01:00:09.821Z,5.50
2018-03-25T01:02:44.890Z,5.50
2018-03-25T01:05:20.488Z,5.50
2018-03-25T01:07:57.602Z,5.40
2018-03-25T01:10:39.531Z,5.30
2018-03-25T01:13:16.133Z,5.20
2018-03-25T01:16:03.415Z,5.10
2018-03-25T01:18:33.176Z,5.10
2018-03-25T01:21:09.216Z,5.10
2018-03-25T01:23:47.768Z,5.10
2018-03-25T01:26:22.975Z,5.10
2018-03-25T01:28:59.419Z,5.10
2018-03-25T01:31:36.212Z,5.10
2018-03-25T01:34:19.162Z,5.00
2018-03-25T01:36:58.140Z,5.00
2018-03-25T01:39:35.439Z,5.00
2018-03-25T01:42:10.840Z,5.00
2018-03-25T01:44:52.982Z,4.90
2018-03-25T01:47:24.028Z,4.90
2018-03-25T01:50:01.173Z,4.90
2018-03-25T01:52:37.380Z,4.90
2018-03-25T01:55:13.206Z,4.90
2018-03-25T01:57:48.510Z,4.90
2018-03-25T02:00:23.664Z,4.90
2018-03-25T02:03:00.039Z,4.90
2018-03-25T02:05:34.783Z,4.90
2018-03-25T02:08:11.515Z,4.90
2018-03-25T02:10:48.893Z,4.90
2018-03-25T02:13:27.235Z,4.90
2018-03-25T02:16:02.899Z,4.90
2018-03-25T02:18:37.804Z,4.90
2018-03-25T02:21:15.305Z,4.90
2018-03-25T02:23:57.307Z,4.90
2018-03-25T02:26:34.355Z,4.90
2018-03-25T02:29:10.995Z,4.90
2018-03-25T02:31:53.777Z,5.00
2018-03-25T02:34:29.615Z,5.00
2018-03-25T02:37:06.607Z,5.00
2018-03-25T02:39:42.104Z,5.00
2018-03-25T02:42:19.457Z,5.00
2018-03-25T02:45:01.479Z,5.00
2018-03-25T02:47:36.924Z,5.00
2018-03-25T02:50:14.734Z,4.80
2018-03-25T02:52:51.559Z,4.80
2018-03-25T02:55:32.852Z,4.80
2018-03-25T02:58:15.290Z,4.60
2018-03-25T03:00:52.567Z,4.50
2018-03-25T03:03:31.879Z,4.50
2018-03-25T03:06:08.360Z,4.50
2018-03-25T03:08:45.351Z,4.60
2018-03-25T03:11:21.357Z,4.60
2018-03-25T03:13:59.411Z,4.60
2018-03-25T03:16:36.838Z,4.60
2018-03-25T03:19:13.711Z,4.60
2018-03-25T03:21:51.566Z,4.60
2018-03-25T03:24:28.249Z,4.60
2018-03-25T03:27:05.188Z,4.60
2018-03-25T03:29:40.951Z,4.60
2018-03-25T03:32:16.459Z,4.50
2018-03-25T03:34:52.571Z,4.40
2018-03-25T03:37:34.271Z,4.40
2018-03-25T03:40:09.645Z,4.40
2018-03-25T03:42:49.114Z,4.30
2018-03-25T03:45:25.632Z,4.30
2018-03-25T03:48:02.652Z,4.40
2018-03-25T03:50:37.832Z,4.40
2018-03-25T03:53:13.101Z,4.30
2018-03-25T03:55:49.354Z,4.20
2018-03-25T03:58:24.697Z,4.20
2018-03-25T04:01:01.537Z,4.20
2018-03-25T04:03:38.685Z,4.20
2018-03-25T04:06:16.239Z,4.20
2018-03-25T04:08:58.130Z,4.10
2018-03-25T04:11:34.927Z,4.10
2018-03-25T04:14:16.762Z,4.10
2018-03-25T04:16:51.849Z,4.10
2018-03-25T04:19:29.267Z,4.00
2018-03-25T04:22:04.914Z,4.00
2018-03-25T04:24:41.373Z,4.00
2018-03-25T04:27:12.093Z,4.00
2018-03-25T04:29:48.709Z,4.00
2018-03-25T04:32:30.506Z,4.00
2018-03-25T04:35:06.785Z,4.00
2018-03-25T04:37:41.858Z,3.90
2018-03-25T04:40:17.902Z,3.80
2018-03-25T04:42:55.457Z,3.80
2018-03-25T04:45:30.950Z,3.70
2018-03-25T04:48:07.403Z,3.70
2018-03-25T04:50:42.974Z,3.70
2018-03-25T04:53:19.978Z,3.70
2018-03-25T04:55:56.211Z,3.60
2018-03-25T04:58:31.137Z,3.60
2018-03-25T05:01:08.792Z,3.60
2018-03-25T05:03:45.794Z,3.50
2018-03-25T05:06:21.263Z,3.50
2018-03-25T05:08:59.806Z,3.50
2018-03-25T05:11:38.169Z,3.40
2018-03-25T05:14:17.024Z,3.40
2018-03-25T05:16:54.304Z,3.40
2018-03-25T05:19:33.581Z,3.40
2018-03-25T05:22:09.901Z,3.50
2018-03-25T05:24:46.572Z,3.50
2018-03-25T05:27:21.617Z,3.50
2018-03-25T05:29:57.984Z,3.40
2018-03-25T05:32:35.139Z,3.30
2018-03-25T05:35:10.147Z,3.40
2018-03-25T05:37:45.959Z,3.40
2018-03-25T05:40:22.369Z,3.40
2018-03-25T05:42:59.433Z,3.40
2018-03-25T05:45:36.401Z,3.40
2018-03-25T05:48:13.958Z,3.40
2018-03-25T05:50:51.039Z,3.40
2018-03-25T05:53:28.591Z,3.30
2018-03-25T05:56:03.764Z,3.40
2018-03-25T05:58:42.012Z,3.40
2018-03-25T06:01:19.319Z,3.20
2018-03-25T06:03:58.105Z,3.20
2018-03-25T06:06:35.253Z,3.20
2018-03-25T06:09:12.408Z,3.20
2018-03-25T06:11:47.520Z,3.20
2018-03-25T06:14:25.324Z,3.40
2018-03-25T06:17:00.550Z,3.40
2018-03-25T06:19:35.765Z,3.50
2018-03-25T06:22:12.307Z,3.50
2018-03-25T06:24:54.185Z,3.60
2018-03-25T06:27:31.393Z,3.70
2018-03-25T06:30:08.198Z,3.90
2018-03-25T06:32:45.565Z,3.90
2018-03-25T06:35:22.124Z,4.00
2018-03-25T06:37:58.459Z,4.30
2018-03-25T06:40:37.514Z,4.70
2018-03-25T06:43:15.365Z,5.10
2018-03-25T06:45:53.592Z,5.50
2018-03-25T06:48:31.665Z,5.80
2018-03-25T06:51:06.874Z,5.80
2018-03-25T06:55:07.834Z,6.40
2018-03-25T06:57:45.703Z,6.60
2018-03-25T07:00:22.593Z,7.10
2018-03-25T07:02:59.867Z,7.40
2018-03-25T07:05:38.476Z,7.30
2018-03-25T07:08:15.701Z,7.60
2018-03-25T07:10:53.913Z,7.70
2018-03-25T07:13:30.554Z,7.70
2018-03-25T07:16:07.243Z,7.90
2018-03-25T07:18:43.902Z,8.30
2018-03-25T07:21:25.208Z,7.70
2018-03-25T07:24:03.290Z,7.70
2018-03-25T07:26:38.634Z,8.00
2018-03-25T07:29:15.243Z,8.10
2018-03-25T07:31:52.516Z,7.90
2018-03-25T07:34:27.918Z,7.60
2018-03-25T07:37:04.454Z,7.80
2018-03-25T07:39:42.182Z,8.20
2018-03-25T07:42:19.746Z,8.20
2018-03-25T07:44:55.145Z,8.60
2018-03-25T07:47:31.771Z,8.30
2018-03-25T07:50:11.804Z,8.30
2018-03-25T07:52:45.580Z,8.20
2018-03-25T07:55:22.759Z,9.20
2018-03-25T07:58:01.204Z,10.00
2018-03-25T08:00:38.780Z,10.00
2018-03-25T08:03:16.847Z,9.80
2018-03-25T08:05:53.501Z,10.20
2018-03-25T08:08:31.725Z,11.10
2018-03-25T08:11:10.114Z,11.10
2018-03-25T08:13:49.802Z,12.30
2018-03-25T08:16:27.141Z,12.30
2018-03-25T08:19:04.965Z,12.20
2018-03-25T08:21:43.438Z,12.50
2018-03-25T08:24:20.888Z,12.50
2018-03-25T08:26:57.687Z,13.60
2018-03-25T08:29:34.880Z,14.00
2018-03-25T08:32:10.196Z,15.00
2018-03-25T08:34:48.132Z,14.50
2018-03-25T08:37:27.242Z,14.90
2018-03-25T08:40:03.485Z,15.50
2018-03-25T08:42:42.646Z,15.50
2018-03-25T08:45:18.292Z,16.00
2018-03-25T08:47:55.116Z,16.30
2018-03-25T08:50:35.088Z,16.40
2018-03-25T08:53:11.692Z,16.40
2018-03-25T08:55:47.449Z,17.10
2018-03-25T08:58:23.975Z,18.10
2018-03-25T09:01:01.213Z,18.20
2018-03-25T09:03:39.078Z,17.60
2018-03-25T09:06:18.046Z,16.80
2018-03-25T09:08:55.700Z,17.90
2018-03-25T09:11:32.178Z,18.50
2018-03-25T09:14:07.382Z,18.90
2018-03-25T09:16:45.201Z,18.20
2018-03-25T09:19:25.151Z,18.20
2018-03-25T09:22:01.945Z,19.60
2018-03-25T09:24:44.733Z,19.10
2018-03-25T09:27:22.000Z,19.10
2018-03-25T09:29:59.270Z,20.00
2018-03-25T09:32:36.260Z,19.90
2018-03-25T09:35:14.296Z,19.80
2018-03-25T09:37:53.680Z,19.80
2018-03-25T09:40:30.874Z,20.60
2018-03-25T09:43:07.593Z,21.00
2018-03-25T09:45:45.521Z,19.60
2018-03-25T09:48:26.036Z,19.30
2018-03-25T09:51:08.643Z,19.50
2018-03-25T09:53:47.671Z,20.00
2018-03-25T09:56:23.809Z,20.30
2018-03-25T09:58:59.036Z,20.40
2018-03-25T10:01:58.160Z,20.20
2018-03-25T10:04:30.273Z,20.90
2018-03-25T10:07:07.900Z,20.90
2018-03-25T10:09:45.199Z,20.40
2018-03-25T10:12:21.979Z,21.00
2018-03-25T10:14:58.394Z,21.30
2018-03-25T10:17:33.967Z,21.20
2018-03-25T10:20:10.998Z,21.30
2018-03-25T10:22:50.909Z,19.50
2018-03-25T10:25:26.782Z,20.00
2018-03-25T10:28:05.177Z,20.80
2018-03-25T10:30:44.041Z,20.60
2018-03-25T10:33:20.342Z,18.10
2018-03-25T10:35:55.413Z,18.10
2018-03-25T10:38:31.948Z,16.70
2018-03-25T10:41:14.327Z,18.10
2018-03-25T10:43:52.695Z,19.10
2018-03-25T10:46:30.085Z,19.80
2018-03-25T10:49:07.056Z,20.00
2018-03-25T10:51:44.722Z,18.40
2018-03-25T10:54:21.024Z,19.30
2018-03-25T10:56:59.274Z,17.70
2018-03-25T10:59:36.879Z,19.80
2018-03-25T11:02:16.770Z,19.80
2018-03-25T11:04:53.518Z,19.20
2018-03-25T11:07:28.918Z,20.30
2018-03-25T11:10:06.195Z,20.80
2018-03-25T11:12:43.491Z,20.30
2018-03-25T11:15:20.956Z,20.40
2018-03-25T11:17:58.001Z,18.70
2018-03-25T11:20:33.502Z,18.70
2018-03-25T11:23:12.948Z,18.60
2018-03-25T11:25:50.480Z,19.10
2018-03-25T11:28:27.639Z,19.10
2018-03-25T11:31:06.090Z,19.60
2018-03-25T11:33:41.440Z,19.60
2018-03-25T11:36:17.469Z,19.20
2018-03-25T11:38:55.003Z,20.10
2018-03-25T11:41:25.506Z,19.80
2018-03-25T11:44:01.977Z,18.30
2018-03-25T11:46:38.635Z,19.10
2018-03-25T11:49:16.279Z,19.40
2018-03-25T11:51:54.243Z,20.00
2018-03-25T11:54:29.879Z,20.40
2018-03-25T11:57:06.542Z,21.10
2018-03-25T11:59:43.448Z,19.50
2018-03-25T12:02:23.332Z,19.50
2018-03-25T12:05:02.486Z,20.00
2018-03-25T12:07:39.670Z,18.80
2018-03-25T12:10:10.842Z,19.50
2018-03-25T12:12:40.460Z,19.50
2018-03-25T12:15:19.659Z,20.20
2018-03-25T12:17:58.512Z,19.00
2018-03-25T12:20:34.913Z,19.00
2018-03-25T12:23:13.344Z,19.50
2018-03-25T12:25:49.984Z,19.00
2018-03-25T12:28:25.579Z,19.10
2018-03-25T12:31:02.940Z,18.10
2018-03-25T12:33:42.428Z,19.00
2018-03-25T12:36:22.343Z,18.90
2018-03-25T12:38:58.443Z,19.70
2018-03-25T12:41:37.946Z,19.80
2018-03-25T12:44:16.869Z,20.30
2018-03-25T12:46:55.130Z,20.30
2018-03-25T12:49:33.989Z,20.20
2018-03-25T12:52:10.570Z,20.40
2018-03-25T12:54:46.743Z,20.30
2018-03-25T12:57:24.587Z,20.30
2018-03-25T13:00:02.743Z,19.90
2018-03-25T13:02:39.975Z,19.50
2018-03-25T13:05:16.674Z,19.30
2018-03-25T13:07:58.463Z,19.10
2018-03-25T13:10:33.957Z,19.10
2018-03-25T13:13:11.004Z,19.40
2018-03-25T13:15:53.005Z,19.40
2018-03-25T13:18:29.323Z,19.70
2018-03-25T13:21:08.718Z,19.50
2018-03-25T13:23:45.733Z,19.50
2018-03-25T13:26:23.324Z,19.50
2018-03-25T13:29:01.550Z,19.40
2018-03-25T13:31:38.194Z,19.20
2018-03-25T13:34:17.646Z,19.00
2018-03-25T13:36:57.964Z,18.90
2018-03-25T13:39:35.182Z,18.90
2018-03-25T13:42:12.919Z,18.30
2018-03-25T13:44:53.023Z,18.10
2018-03-25T13:47:30.291Z,18.20
2018-03-25T13:50:05.971Z,18.20
2018-03-25T13:52:42.050Z,17.30
2018-03-25T13:55:17.332Z,17.30
2018-03-25T13:57:54.319Z,16.90
2018-03-25T14:00:31.204Z,16.70
2018-03-25T14:03:10.981Z,17.50
2018-03-25T14:05:49.387Z,18.10
2018-03-25T14:08:27.003Z,18.50
2018-03-25T14:11:04.337Z,18.40
2018-03-25T14:13:40.637Z,18.90
2018-03-25T14:16:18.745Z,18.60
2018-03-25T14:18:58.378Z,19.20
2018-03-25T14:21:37.650Z,19.60
2018-03-25T14:24:13.385Z,19.50
2018-03-25T14:26:50.145Z,19.80
2018-03-25T14:29:26.959Z,20.10
2018-03-25T14:32:05.010Z,20.10
2018-03-25T14:34:41.036Z,19.80
2018-03-25T14:37:18.439Z,19.80
2018-03-25T14:39:56.402Z,19.40
2018-03-25T14:42:35.680Z,19.40
2018-03-25T14:45:11.970Z,18.70
2018-03-25T14:47:48.210Z,18.20
2018-03-25T14:50:25.219Z,18.30
2018-03-25T14:53:02.826Z,18.50
2018-03-25T14:55:39.296Z,18.50
2018-03-25T14:58:16.632Z,18.20
2018-03-25T15:00:53.024Z,18.20
2018-03-25T15:03:30.957Z,17.30
2018-03-25T15:06:13.310Z,17.30
2018-03-25T15:08:52.110Z,16.80
2018-03-25T15:11:30.546Z,16.70
2018-03-25T15:14:06.744Z,16.80
2018-03-25T15:16:42.687Z,16.50
2018-03-25T15:19:22.464Z,16.00
2018-03-25T15:21:52.886Z,16.00
2018-03-25T15:24:30.798Z,15.90
2018-03-25T15:27:06.379Z,15.80
2018-03-25T15:29:45.343Z,15.80
2018-03-25T15:32:24.441Z,15.70
2018-03-25T15:35:01.905Z,15.60
2018-03-25T15:37:38.972Z,15.50
2018-03-25T15:40:16.087Z,15.50
2018-03-25T15:42:52.924Z,15.40
2018-03-25T15:45:29.619Z,15.30
2018-03-25T15:48:11.999Z,15.20
2018-03-25T15:50:49.973Z,15.20
2018-03-25T15:53:34.228Z,14.90
2018-03-25T15:56:11.996Z,14.80
2018-03-25T15:58:51.343Z,14.80
2018-03-25T16:01:29.680Z,14.70
2018-03-25T16:09:17.590Z,14.40
2018-03-25T16:11:53.894Z,14.40
2018-03-25T16:14:32.606Z,14.30
2018-03-25T16:17:10.444Z,14.30
2018-03-25T16:19:47.996Z,14.20
2018-03-25T16:22:26.291Z,13.90
2018-03-25T16:25:03.147Z,13.90
2018-03-25T16:27:40.492Z,13.90
2018-03-25T16:30:18.817Z,13.80
2018-03-25T16:32:56.387Z,13.80
2018-03-25T16:35:33.490Z,13.70
2018-03-25T16:38:11.498Z,13.60
2018-03-25T16:40:49.558Z,13.60
2018-03-25T16:43:26.245Z,13.60
2018-03-25T16:46:01.185Z,13.50
2018-03-25T16:48:37.177Z,13.40
2018-03-25T16:51:13.877Z,13.40
2018-03-25T16:53:52.480Z,13.30
2018-03-25T16:56:29.853Z,13.30
2018-03-25T16:59:07.351Z,13.20
2018-03-25T17:01:46.635Z,13.20
2018-03-25T17:04:22.814Z,13.10
2018-03-25T17:07:03.691Z,13.00
2018-03-25T17:09:42.239Z,12.90
2018-03-25T17:12:21.833Z,12.90
2018-03-25T17:14:59.690Z,12.80
2018-03-25T17:17:41.571Z,12.80
2018-03-25T17:20:20.532Z,12.80
2018-03-25T17:22:57.046Z,12.70
2018-03-25T17:25:39.688Z,12.70
2018-03-25T17:28:17.639Z,12.60
2018-03-25T17:30:55.619Z,12.60
2018-03-25T17:33:34.411Z,12.50
2018-03-25T17:36:10.218Z,12.50
2018-03-25T17:38:50.031Z,12.50
2018-03-25T17:41:27.629Z,12.50
2018-03-25T17:44:05.987Z,12.50
2018-03-25T17:46:43.518Z,12.40
2018-03-25T17:49:20.446Z,12.40
2018-03-25T17:52:00.069Z,12.40
2018-03-25T17:54:39.572Z,12.40
2018-03-25T17:57:15.242Z,12.40
2018-03-25T17:59:51.449Z,12.30
2018-03-25T18:02:35.143Z,12.30
2018-03-25T18:05:11.499Z,12.30
2018-03-25T18:07:47.362Z,12.20
2018-03-25T18:10:24.804Z,12.10
2018-03-25T18:13:03.204Z,12.10
2018-03-25T18:15:40.352Z,12.10
2018-03-25T18:18:16.299Z,12.10
2018-03-25T18:20:56.289Z,12.00
2018-03-25T18:23:30.554Z,12.00
2018-03-25T18:26:07.285Z,12.00
2018-03-25T18:28:43.715Z,11.90
2018-03-25T18:31:25.004Z,11.90
2018-03-25T18:34:02.459Z,11.80
2018-03-25T18:36:39.952Z,11.90
2018-03-25T18:39:17.729Z,11.80
2018-03-25T18:41:55.825Z,11.70
2018-03-25T18:44:35.711Z,11.70
2018-03-25T18:47:12.739Z,11.70
2018-03-25T18:49:48.599Z,11.70
2018-03-25T18:52:24.564Z,11.70
2018-03-25T18:55:03.807Z,11.60
2018-03-25T18:57:43.082Z,11.60
2018-03-25T19:00:18.227Z,11.60
2018-03-25T19:02:53.752Z,11.60
2018-03-25T19:05:30.904Z,11.60
2018-03-25T19:08:09.279Z,11.50
2018-03-25T19:10:47.037Z,11.50
2018-03-25T19:13:23.378Z,11.50
2018-03-25T19:16:02.276Z,11.40
2018-03-25T19:18:39.915Z,11.40
2018-03-25T19:21:15.714Z,11.40
2018-03-25T19:23:52.317Z,11.40
2018-03-25T19:26:23.007Z,11.40
2018-03-25T19:28:59.803Z,11.40
2018-03-25T19:31:36.837Z,11.30
2018-03-25T19:34:13.472Z,11.30
2018-03-25T19:36:50.167Z,11.30
2018-03-25T19:39:28.683Z,11.20
2018-03-25T19:42:06.211Z,11.20
2018-03-25T19:44:41.686Z,11.20
2018-03-25T19:47:17.221Z,11.10
2018-03-25T19:49:55.836Z,11.10
2018-03-25T19:52:32.254Z,11.00
2018-03-25T19:55:08.709Z,11.00
2018-03-25T19:57:46.230Z,11.00
2018-03-25T20:00:22.521Z,10.90
2018-03-25T20:02:58.250Z,10.90
2018-03-25T20:05:33.823Z,10.90
2018-03-25T20:08:10.436Z,10.80
2018-03-25T20:10:47.941Z,10.70
2018-03-25T20:13:25.701Z,10.70
2018-03-25T20:16:01.281Z,10.60
2018-03-25T20:18:41.648Z,10.60
2018-03-25T20:21:19.201Z,10.50
2018-03-25T20:23:54.844Z,10.50
2018-03-25T20:26:31.715Z,10.40
2018-03-25T20:29:08.322Z,10.40
2018-03-25T20:31:44.677Z,10.40
2018-03-25T20:34:21.515Z,10.30
2018-03-25T20:37:03.582Z,10.20
2018-03-25T20:39:41.221Z,10.20
2018-03-25T20:42:20.429Z,10.10
2018-03-25T20:44:57.291Z,10.10
2018-03-25T20:47:33.201Z,10.10
2018-03-25T20:50:10.598Z,10.00
2018-03-25T20:52:50.280Z,10.00
2018-03-25T20:55:26.793Z,10.00
2018-03-25T20:58:05.118Z,9.90
2018-03-25T21:00:44.133Z,9.80
2018-03-25T21:03:16.063Z,9.80
2018-03-25T21:05:55.240Z,9.80
2018-03-25T21:08:34.958Z,9.70
2018-03-25T21:11:11.668Z,9.60
2018-03-25T21:13:49.108Z,9.50
2018-03-25T21:16:25.982Z,9.40
2018-03-25T21:19:04.565Z,9.30
2018-03-25T21:21:44.631Z,9.30
2018-03-25T21:24:20.354Z,9.30
2018-03-25T21:26:56.255Z,9.30
2018-03-25T21:29:33.330Z,9.20
2018-03-25T21:32:09.802Z,9.20
2018-03-25T21:34:45.081Z,9.20
2018-03-25T21:37:21.483Z,9.10
2018-03-25T21:39:58.636Z,9.00
2018-03-25T21:42:34.147Z,9.00
2018-03-25T21:45:09.489Z,8.90
2018-03-25T21:47:46.343Z,8.90
2018-03-25T21:50:22.990Z,8.90
2018-03-25T21:52:58.390Z,8.90
2018-03-25T21:55:35.387Z,8.70
2018-03-25T21:58:11.030Z,8.70
2018-03-25T22:00:47.963Z,8.70
2018-03-25T22:03:25.551Z,8.70
2018-03-25T22:06:03.493Z,8.50
2018-03-25T22:08:42.950Z,8.50
2018-03-25T22:11:20.620Z,8.50
2018-03-25T22:13:56.480Z,8.40
2018-03-25T22:16:34.403Z,8.50
2018-03-25T22:19:12.953Z,8.50
2018-03-25T22:21:50.592Z,8.40
2018-03-25T22:24:28.316Z,8.40
2018-03-25T22:27:06.139Z,8.40
2018-03-25T22:29:43.597Z,8.30
2018-03-25T22:32:20.456Z,8.30
2018-03-25T22:34:56.983Z,8.30
2018-03-25T22:37:35.104Z,8.30
2018-03-25T22:40:11.437Z,8.30
2018-03-25T22:42:47.828Z,8.30
2018-03-25T22:45:24.357Z,8.40
2018-03-25T22:48:01.366Z,8.30
2018-03-25T22:50:38.482Z,8.40
2018-03-25T22:53:15.430Z,8.30
2018-03-25T22:55:51.223Z,8.20
2018-03-25T22:58:28.200Z,8.20
2018-03-25T23:01:03.430Z,8.10
2018-03-25T23:03:39.093Z,8.20
2018-03-25T23:06:15.700Z,8.20
2018-03-25T23:08:51.147Z,8.20
2018-03-25T23:11:28.623Z,8.20
2018-03-25T23:14:05.508Z,8.20
2018-03-25T23:16:44.146Z,8.20
2018-03-25T23:19:22.764Z,8.20
2018-03-25T23:22:00.310Z,8.20
2018-03-25T23:24:37.224Z,8.20
2018-03-25T23:27:14.370Z,8.10
2018-03-25T23:29:57.044Z,8.10
2018-03-25T23:32:33.170Z,8.10
2018-03-25T23:35:15.524Z,8.10
2018-03-25T23:37:51.244Z,8.00
2018-03-25T23:40:26.867Z,8.00
2018-03-25T23:43:03.167Z,8.10
2018-03-25T23:45:40.436Z,8.10
2018-03-25T23:48:16.863Z,8.00
2018-03-25T23:50:53.576Z,8.00
2018-03-25T23:53:28.989Z,8.00
2018-03-25T23:56:05.381Z,8.00
2018-03-25T23:58:42.227Z,8.00
